Skip Navigation Links
NOAA logo - Click to go to the NOAA homepage
NOAA's National Weather Service
Alaska Aviation Weather Unit
  NWS logo - Click to go to the NWS homepage
Left Navbar Graphic     10 AKDT = 18 GMT

   
NOAA is celebrating 200 years of science, service, and stewardship. Visit the NOAA 200th celebration Web site to learn more.
USA.gov is the U.S. Government's official Web portal to all Federal, state and local government Web resources and services.
Facebook
NWS on Facebook

Important Change Regarding the AAWU Web Presence

 

Over the last several months, the AAWU has been working to navigate its webpages to a nationally supported server. Security, as well as other needs, have necessitated the change.  We have been given an extension for the site changeover while we diligently work at addressing feedback received. As of July 14, 2017, aawu.arh.noaa.gov will be discontinued. The new AAWU web address is weather.gov/aawu. It is now live and will run in-parallel with the old site until it is discontinued on July 14, 2017. Please continue to send any feedback or questions regarding the new webpages to nws.ar.aawu.webauthors@noaa.gov.  Thank you for your patience during this time of transition.
AAWU Home :: Display TAF Add Bookmark
METAR PADM 261256Z AUTO 07009KT 10SM CLR 02/00 A2987 RMK AO2 SLP123
    T00220000 FZRANO=

METAR PADM 261356Z AUTO 05006KT 10SM CLR 01/M01 A2986 RMK AO2 SLP122
     T00111006 FZRANO=

METAR PADM 261456Z AUTO 05007KT 10SM SCT040 02/M01 A2986 RMK AO2 SLP120
     T00171006 58004 FZRANO=

METAR PADM 261556Z AUTO 03005KT 10SM SCT047 02/M01 A2986 RMK AO2 SLP119
     T00171006 FZRANO=

METAR PADM 261656Z AUTO 06013KT 10SM BKN049 03/01 A2985 RMK AO2 SLP115
     T00280006=

METAR PADM 261756Z AUTO 04014KT 10SM SCT049 03/01 A2985 RMK AO2 SLP116
     T00330011 10033 20006 56005=


NOAA's National Weather Service
Alaska Aviation Weather Unit
6930 Sand Lake Road
Anchorage, AK 99502-1845
Disclaimer
Credits
Glossary
Privacy Policy
About Us
Career Opportunities
Contact AAWU Internet Services Site last modified: April, 17th 2012